createdAt,value
2018-06-08T00:01:59.559Z,24.27
2018-06-08T00:04:26.250Z,24.25
2018-06-08T00:06:52.884Z,24.24
2018-06-08T00:09:19.543Z,24.28
2018-06-08T00:11:46.237Z,24.24
2018-06-08T00:14:12.878Z,24.24
2018-06-08T00:16:39.503Z,24.22
2018-06-08T00:19:06.144Z,24.24
2018-06-08T00:21:32.792Z,24.25
2018-06-08T00:23:59.480Z,24.23
2018-06-08T00:26:26.120Z,24.24
2018-06-08T00:28:52.746Z,24.26
2018-06-08T00:31:20.623Z,24.32
2018-06-08T00:33:46.112Z,24.22
2018-06-08T00:36:12.761Z,24.18
2018-06-08T00:38:39.413Z,24.21
2018-06-08T00:41:06.068Z,24.21
2018-06-08T00:43:32.758Z,24.17
2018-06-08T00:45:59.432Z,24.19
2018-06-08T00:48:26.055Z,24.16
2018-06-08T00:50:55.551Z,24.13
2018-06-08T00:53:22.204Z,24.15
2018-06-08T00:55:48.909Z,24.13
2018-06-08T00:58:15.565Z,24.14
2018-06-08T01:00:42.217Z,24.13
2018-06-08T01:03:08.882Z,24.13
2018-06-08T01:05:35.483Z,24.10
2018-06-08T01:08:02.194Z,24.09
2018-06-08T01:10:28.839Z,24.11
2018-06-08T01:12:55.498Z,24.04
2018-06-08T01:15:22.274Z,24.11
2018-06-08T01:17:48.915Z,24.08
2018-06-08T01:20:15.540Z,24.18
2018-06-08T01:22:42.241Z,24.11
2018-06-08T01:25:08.898Z,24.09
2018-06-08T01:27:35.548Z,24.03
2018-06-08T01:30:02.259Z,24.08
2018-06-08T01:32:28.877Z,24.10
2018-06-08T01:34:55.543Z,24.05
2018-06-08T01:37:22.256Z,24.05
2018-06-08T01:39:48.949Z,24.07
2018-06-08T01:42:15.615Z,24.05
2018-06-08T01:44:42.269Z,24.03
2018-06-08T01:47:08.964Z,23.99
2018-06-08T01:49:35.650Z,23.97
2018-06-08T01:52:02.338Z,24.00
2018-06-08T01:54:28.997Z,24.07
2018-06-08T01:56:55.670Z,24.06
2018-06-08T01:59:22.333Z,24.05
2018-06-08T02:01:48.989Z,24.12
2018-06-08T02:04:15.649Z,24.05
2018-06-08T02:06:42.326Z,23.98
2018-06-08T02:09:08.966Z,23.97
2018-06-08T02:11:35.622Z,24.05
2018-06-08T02:14:02.300Z,24.00
2018-06-08T02:16:28.953Z,23.93
2018-06-08T02:18:55.645Z,23.97
2018-06-08T02:21:22.294Z,23.92
2018-06-08T02:23:48.952Z,23.97
2018-06-08T02:26:15.605Z,23.93
2018-06-08T02:28:42.268Z,24.01
2018-06-08T02:31:08.960Z,23.99
2018-06-08T02:33:35.609Z,23.92
2018-06-08T02:36:02.375Z,24.01
2018-06-08T02:38:29.075Z,23.96
2018-06-08T02:40:55.775Z,23.92
2018-06-08T02:43:22.431Z,23.84
2018-06-08T02:45:49.139Z,23.87
2018-06-08T02:48:15.792Z,23.91
2018-06-08T02:50:42.438Z,23.86
2018-06-08T02:53:09.142Z,23.86
2018-06-08T02:55:35.754Z,23.82
2018-06-08T02:58:02.420Z,23.82
2018-06-08T03:00:29.079Z,23.83
2018-06-08T03:02:55.777Z,23.84
2018-06-08T03:05:22.483Z,23.80
2018-06-08T03:07:49.106Z,23.86
2018-06-08T03:10:15.723Z,23.87
2018-06-08T03:12:42.393Z,23.96
2018-06-08T03:15:09.082Z,23.95
2018-06-08T03:17:35.764Z,23.98
2018-06-08T03:20:02.392Z,23.99
2018-06-08T03:22:30.132Z,23.92
2018-06-08T03:24:56.785Z,23.89
2018-06-08T03:27:26.753Z,23.85
2018-06-08T03:29:53.413Z,23.96
2018-06-08T03:32:20.134Z,23.83
2018-06-08T03:34:46.761Z,23.88
2018-06-08T03:37:13.457Z,23.88
2018-06-08T03:39:40.135Z,23.84
2018-06-08T03:42:06.773Z,23.84
2018-06-08T03:44:33.489Z,23.88
2018-06-08T03:47:00.136Z,24.02
2018-06-08T03:49:29.834Z,24.01
2018-06-08T03:51:56.536Z,24.05
2018-06-08T03:54:23.147Z,24.15
2018-06-08T03:56:49.798Z,24.42
2018-06-08T03:59:16.459Z,24.53
2018-06-08T04:01:43.150Z,24.70
2018-06-08T04:04:09.898Z,24.87
2018-06-08T04:06:36.527Z,24.90
2018-06-08T04:09:03.195Z,25.06
2018-06-08T04:11:29.859Z,25.14
2018-06-08T04:13:56.511Z,24.82
2018-06-08T04:16:23.161Z,24.84
2018-06-08T04:18:49.859Z,24.70
2018-06-08T04:21:16.530Z,24.71
2018-06-08T04:23:43.193Z,24.78
2018-06-08T04:26:09.840Z,24.68
2018-06-08T04:28:36.499Z,24.51
2018-06-08T04:31:03.210Z,24.54
2018-06-08T04:33:29.892Z,24.48
2018-06-08T04:35:56.522Z,24.52
2018-06-08T04:38:24.507Z,24.48
2018-06-08T04:40:49.860Z,24.51
2018-06-08T04:43:16.535Z,24.49
2018-06-08T04:45:43.222Z,24.48
2018-06-08T04:48:09.847Z,24.43
2018-06-08T04:50:36.589Z,24.47
2018-06-08T04:53:03.208Z,24.51
2018-06-08T04:55:29.861Z,24.53
2018-06-08T04:57:56.527Z,24.58
2018-06-08T05:00:23.226Z,24.57
2018-06-08T05:02:49.873Z,24.65
2018-06-08T05:05:16.505Z,24.71
2018-06-08T05:07:43.209Z,24.73
2018-06-08T05:10:09.879Z,24.67
2018-06-08T05:12:36.584Z,24.75
2018-06-08T05:15:03.239Z,24.75
2018-06-08T05:17:29.915Z,24.76
2018-06-08T05:19:56.615Z,24.55
2018-06-08T05:22:23.268Z,24.66
2018-06-08T05:24:49.991Z,24.69
2018-06-08T05:27:16.676Z,24.69
2018-06-08T05:29:43.369Z,24.76
2018-06-08T05:32:10.006Z,24.80
2018-06-08T05:34:36.706Z,24.77
2018-06-08T05:37:03.364Z,24.82
2018-06-08T05:39:30.056Z,24.89
2018-06-08T05:41:56.750Z,24.82
2018-06-08T05:44:23.399Z,24.81
2018-06-08T05:46:50.129Z,24.94
2018-06-08T05:49:16.763Z,24.97
2018-06-08T05:51:43.426Z,25.12
2018-06-08T05:54:10.117Z,25.17
2018-06-08T05:56:36.802Z,25.19
2018-06-08T05:59:03.443Z,25.33
2018-06-08T06:01:31.384Z,25.40
2018-06-08T06:03:56.772Z,25.40
2018-06-08T06:06:23.444Z,25.39
2018-06-08T06:08:50.149Z,25.43
2018-06-08T06:11:16.806Z,25.48
2018-06-08T06:13:43.421Z,25.49
2018-06-08T06:16:10.116Z,25.40
2018-06-08T06:18:36.852Z,25.35
2018-06-08T06:21:03.527Z,25.34
2018-06-08T06:23:30.205Z,25.23
2018-06-08T06:25:56.879Z,25.27
2018-06-08T06:28:23.502Z,25.22
2018-06-08T06:30:50.185Z,25.24
2018-06-08T06:33:16.921Z,25.26
2018-06-08T06:35:43.591Z,25.34
2018-06-08T06:38:10.289Z,25.39
2018-06-08T06:40:36.989Z,25.46
2018-06-08T06:43:03.675Z,25.63
2018-06-08T06:45:30.429Z,25.66
2018-06-08T06:47:57.161Z,25.74
2018-06-08T06:50:23.770Z,25.71
2018-06-08T06:52:50.431Z,25.71
2018-06-08T06:55:17.279Z,25.67
2018-06-08T06:57:43.967Z,25.70
2018-06-08T07:00:10.699Z,25.74
2018-06-08T07:02:37.319Z,25.67
2018-06-08T07:05:03.968Z,25.65
2018-06-08T07:07:30.683Z,25.67
2018-06-08T07:09:57.342Z,25.65
2018-06-08T07:12:24.009Z,25.64
2018-06-08T07:14:50.690Z,25.63
2018-06-08T07:17:17.456Z,25.63
2018-06-08T07:19:45.215Z,25.65
2018-06-08T07:22:11.842Z,25.69
2018-06-08T07:24:38.782Z,25.67
2018-06-08T07:27:05.493Z,25.58
2018-06-08T07:29:32.110Z,25.55
2018-06-08T07:31:58.808Z,25.53
2018-06-08T07:34:25.494Z,25.48
2018-06-08T07:36:52.179Z,25.62
2018-06-08T07:39:18.938Z,25.59
2018-06-08T07:41:46.932Z,25.41
2018-06-08T07:44:12.272Z,25.46
2018-06-08T07:46:38.992Z,25.38
2018-06-08T07:49:05.654Z,25.41
2018-06-08T07:51:35.153Z,25.40
2018-06-08T07:54:01.837Z,25.37
2018-06-08T07:56:28.555Z,25.39
2018-06-08T07:58:56.217Z,25.37
2018-06-08T08:01:22.907Z,25.41
2018-06-08T08:03:49.609Z,25.36
2018-06-08T08:06:16.244Z,25.45
2018-06-08T08:08:42.923Z,25.39
2018-06-08T08:11:09.592Z,25.34
2018-06-08T08:13:36.271Z,25.47
2018-06-08T08:16:02.976Z,25.52
2018-06-08T08:18:29.703Z,25.45
2018-06-08T08:20:56.340Z,25.50
2018-06-08T08:23:25.610Z,25.63
2018-06-08T08:25:52.372Z,25.62
2018-06-08T08:28:19.031Z,25.62
2018-06-08T08:30:45.758Z,25.56
2018-06-08T08:33:12.413Z,25.44
2018-06-08T08:35:39.076Z,25.40
2018-06-08T08:38:05.752Z,25.44
2018-06-08T08:40:32.431Z,25.42
2018-06-08T08:43:02.222Z,25.55
2018-06-08T08:45:28.920Z,25.52
2018-06-08T08:47:55.579Z,25.40
2018-06-08T08:50:22.250Z,25.34
2018-06-08T08:52:48.896Z,25.30
2018-06-08T08:55:15.618Z,25.31
2018-06-08T08:57:42.313Z,25.32
2018-06-08T09:00:08.931Z,25.28
2018-06-08T09:02:35.626Z,25.35
2018-06-08T09:05:02.328Z,25.26
2018-06-08T09:07:28.993Z,25.33
2018-06-08T09:09:55.664Z,25.28
2018-06-08T09:12:22.399Z,25.31
2018-06-08T09:14:49.063Z,25.34
2018-06-08T09:17:15.693Z,25.38
2018-06-08T09:19:42.444Z,25.47
2018-06-08T09:22:09.142Z,25.57
2018-06-08T09:24:35.802Z,25.60
2018-06-08T09:27:02.458Z,25.49
2018-06-08T09:29:29.158Z,25.54
2018-06-08T09:31:55.855Z,25.71
2018-06-08T09:34:22.530Z,25.69
2018-06-08T09:36:49.301Z,25.74
2018-06-08T09:39:15.949Z,25.62
2018-06-08T09:41:42.634Z,25.60
2018-06-08T09:44:09.269Z,25.58
2018-06-08T09:46:35.963Z,25.58
2018-06-08T09:49:02.635Z,25.67
2018-06-08T09:51:29.297Z,25.68
2018-06-08T09:53:56.012Z,25.61
2018-06-08T09:56:22.662Z,25.61
2018-06-08T09:58:51.448Z,25.62
2018-06-08T10:01:18.104Z,25.70
2018-06-08T10:03:44.887Z,25.63
2018-06-08T10:06:11.613Z,25.63
2018-06-08T10:08:38.286Z,25.63
2018-06-08T10:11:04.928Z,25.54
2018-06-08T10:13:31.605Z,25.32
2018-06-08T10:15:58.261Z,25.31
2018-06-08T10:18:24.988Z,25.36
2018-06-08T10:20:53.818Z,25.45
2018-06-08T10:23:20.556Z,25.62
2018-06-08T10:25:47.224Z,25.76
2018-06-08T10:28:13.993Z,25.71
2018-06-08T10:30:40.722Z,25.56
2018-06-08T10:33:07.398Z,25.38
2018-06-08T10:35:34.056Z,25.36
2018-06-08T10:38:00.759Z,25.57
2018-06-08T10:40:27.441Z,25.79
2018-06-08T10:42:54.075Z,25.65
2018-06-08T10:45:20.794Z,25.82
2018-06-08T10:47:47.461Z,25.70
2018-06-08T10:50:14.126Z,25.48
2018-06-08T10:52:40.900Z,25.45
2018-06-08T10:55:07.598Z,25.39
2018-06-08T10:57:34.246Z,25.58
2018-06-08T11:00:00.911Z,25.66
2018-06-08T11:02:27.523Z,25.74
2018-06-08T11:04:54.212Z,25.78
2018-06-08T11:07:20.861Z,25.43
2018-06-08T11:09:47.701Z,25.32
2018-06-08T11:12:14.347Z,25.57
2018-06-08T11:14:40.991Z,25.70
2018-06-08T11:17:07.737Z,25.70
2018-06-08T11:19:34.493Z,25.73
2018-06-08T11:22:01.164Z,25.38
2018-06-08T11:24:27.825Z,25.47
2018-06-08T11:26:54.582Z,25.45
2018-06-08T11:29:21.245Z,25.60
2018-06-08T11:31:47.901Z,25.73
2018-06-08T11:34:14.555Z,25.84
2018-06-08T11:36:41.253Z,25.71
2018-06-08T11:39:07.962Z,25.71
2018-06-08T11:41:34.615Z,25.73
2018-06-08T11:44:01.284Z,25.61
2018-06-08T11:46:27.935Z,25.62
2018-06-08T11:48:54.632Z,25.61
2018-06-08T11:51:21.307Z,25.62
2018-06-08T11:53:47.998Z,25.64
2018-06-08T11:56:14.690Z,25.66
2018-06-08T11:58:41.407Z,25.72
2018-06-08T12:01:08.025Z,25.62
2018-06-08T12:03:34.695Z,25.62
2018-06-08T12:06:01.351Z,25.49
2018-06-08T12:08:28.708Z,25.45
2018-06-08T12:10:55.320Z,25.47
2018-06-08T12:13:22.054Z,25.59
2018-06-08T12:15:48.704Z,25.53
2018-06-08T12:18:15.360Z,25.67
2018-06-08T12:20:44.846Z,25.30
2018-06-08T12:23:16.138Z,25.04
2018-06-08T12:25:44.238Z,25.09
2018-06-08T12:28:09.529Z,25.37
2018-06-08T12:30:36.310Z,25.56
2018-06-08T12:33:02.996Z,25.73
2018-06-08T12:35:29.700Z,25.77
2018-06-08T12:37:56.375Z,25.73
2018-06-08T12:40:23.024Z,25.91
2018-06-08T12:42:49.699Z,25.81
2018-06-08T12:45:16.370Z,25.83
2018-06-08T12:47:43.055Z,25.66
2018-06-08T12:50:09.710Z,25.52
2018-06-08T12:52:36.443Z,25.43
2018-06-08T12:55:03.208Z,25.37
2018-06-08T12:57:29.935Z,25.32
2018-06-08T12:59:56.580Z,25.32
2018-06-08T13:02:25.642Z,25.44
2018-06-08T13:04:52.339Z,25.49
2018-06-08T13:07:19.129Z,25.46
2018-06-08T13:09:45.802Z,25.44
2018-06-08T13:12:12.449Z,25.42
2018-06-08T13:14:39.154Z,25.48
2018-06-08T13:17:05.888Z,25.44
2018-06-08T13:19:32.635Z,25.46
2018-06-08T13:22:01.418Z,25.59
2018-06-08T13:24:28.122Z,25.54
2018-06-08T13:26:54.935Z,25.47
2018-06-08T13:29:21.613Z,25.49
2018-06-08T13:31:48.278Z,25.50
2018-06-08T13:34:14.980Z,25.54
2018-06-08T13:36:41.689Z,25.45
2018-06-08T13:39:09.405Z,25.50
2018-06-08T13:41:36.112Z,25.47
2018-06-08T13:44:02.807Z,25.52
2018-06-08T13:46:29.543Z,25.50
2018-06-08T13:48:56.210Z,25.59
2018-06-08T13:51:22.829Z,25.55
2018-06-08T13:53:49.561Z,25.58
2018-06-08T13:56:16.228Z,25.56
2018-06-08T13:58:43.067Z,25.63
2018-06-08T14:01:09.678Z,25.51
2018-06-08T14:03:36.372Z,25.57
2018-06-08T14:06:03.051Z,25.47
2018-06-08T14:08:29.712Z,25.59
2018-06-08T14:10:56.360Z,25.58
2018-06-08T14:13:23.048Z,25.60
2018-06-08T14:15:49.781Z,25.70
2018-06-08T14:18:16.391Z,25.57
2018-06-08T14:20:43.117Z,25.65
2018-06-08T14:23:09.784Z,25.63
2018-06-08T14:25:36.442Z,25.73
2018-06-08T14:28:03.123Z,25.76
2018-06-08T14:30:30.147Z,25.72
2018-06-08T14:32:56.850Z,25.69
2018-06-08T14:35:23.472Z,25.78
2018-06-08T14:37:50.165Z,25.72
2018-06-08T14:40:16.921Z,25.75
2018-06-08T14:42:43.605Z,25.66
2018-06-08T14:45:10.285Z,25.58
2018-06-08T14:47:37.017Z,25.69
2018-06-08T14:50:03.684Z,25.70
2018-06-08T14:52:30.563Z,25.63
2018-06-08T14:54:57.258Z,25.69
2018-06-08T14:57:23.922Z,25.50
2018-06-08T14:59:50.575Z,25.47
2018-06-08T15:02:17.306Z,25.52
2018-06-08T15:04:43.992Z,25.45
2018-06-08T15:07:10.656Z,25.47
2018-06-08T15:09:37.308Z,25.47
2018-06-08T15:12:03.972Z,25.60
2018-06-08T15:14:30.634Z,25.57
2018-06-08T15:16:57.285Z,25.74
2018-06-08T15:19:23.995Z,25.65
2018-06-08T15:21:50.645Z,25.65
2018-06-08T15:24:17.392Z,25.62
2018-06-08T15:26:44.091Z,25.55
2018-06-08T15:29:10.738Z,25.66
2018-06-08T15:31:37.383Z,25.73
2018-06-08T15:34:04.048Z,25.63
2018-06-08T15:36:30.744Z,25.55
2018-06-08T15:38:57.388Z,25.61
2018-06-08T15:41:24.062Z,25.58
2018-06-08T15:43:50.666Z,25.55
2018-06-08T15:46:17.398Z,25.53
2018-06-08T15:48:44.105Z,25.58
2018-06-08T15:51:10.711Z,25.47
2018-06-08T15:53:37.380Z,25.53
2018-06-08T15:56:04.017Z,25.53
2018-06-08T15:58:30.736Z,25.53
2018-06-08T16:00:57.448Z,25.46
2018-06-08T16:03:24.050Z,25.50
2018-06-08T16:05:50.740Z,25.54
2018-06-08T16:08:17.408Z,25.48
2018-06-08T16:10:44.063Z,25.44
2018-06-08T16:13:10.760Z,25.45
2018-06-08T16:15:37.487Z,25.37
2018-06-08T16:18:04.179Z,25.46
2018-06-08T16:20:30.827Z,25.46
2018-06-08T16:22:57.557Z,25.44
2018-06-08T16:25:24.176Z,25.37
2018-06-08T16:27:50.900Z,25.39
2018-06-08T16:30:17.594Z,25.37
2018-06-08T16:32:44.239Z,25.36
2018-06-08T16:35:11.041Z,25.41
2018-06-08T16:37:37.682Z,25.36
2018-06-08T16:40:04.336Z,25.33
2018-06-08T16:42:31.095Z,25.32
2018-06-08T16:44:57.752Z,25.32
2018-06-08T16:47:24.439Z,25.40
2018-06-08T16:49:51.083Z,25.31
2018-06-08T16:52:17.776Z,25.33
2018-06-08T16:54:44.455Z,25.29
2018-06-08T16:57:11.198Z,25.33
2018-06-08T16:59:37.828Z,25.26
2018-06-08T17:02:04.500Z,25.29
2018-06-08T17:04:31.197Z,25.32
2018-06-08T17:06:57.809Z,25.27
2018-06-08T17:09:24.498Z,25.22
2018-06-08T17:11:51.147Z,25.24
2018-06-08T17:14:17.836Z,25.22
2018-06-08T17:16:44.517Z,25.25
2018-06-08T17:19:11.201Z,25.20
2018-06-08T17:21:37.884Z,25.15
2018-06-08T17:24:04.542Z,25.13
2018-06-08T17:26:31.192Z,25.19
2018-06-08T17:28:57.934Z,25.20
2018-06-08T17:31:24.555Z,25.30
2018-06-08T17:33:51.231Z,25.40
2018-06-08T17:36:17.847Z,25.48
2018-06-08T17:38:44.500Z,25.35
2018-06-08T17:41:11.232Z,25.28
2018-06-08T17:43:38.013Z,25.35
2018-06-08T17:46:04.664Z,25.28
2018-06-08T17:48:31.305Z,25.18
2018-06-08T17:50:57.934Z,25.17
2018-06-08T17:53:24.631Z,25.16
2018-06-08T17:55:51.326Z,25.11
2018-06-08T17:58:17.966Z,25.12
2018-06-08T18:00:44.866Z,25.08
2018-06-08T18:03:11.489Z,25.13
2018-06-08T18:05:38.140Z,25.08
2018-06-08T18:08:04.799Z,25.03
2018-06-08T18:10:31.513Z,25.21
2018-06-08T18:12:58.193Z,25.40
2018-06-08T18:15:24.877Z,25.25
2018-06-08T18:17:51.623Z,25.18
2018-06-08T18:20:19.315Z,25.15
2018-06-08T18:22:45.971Z,25.12
2018-06-08T18:25:12.685Z,25.11
2018-06-08T18:27:39.340Z,25.07
2018-06-08T18:30:06.033Z,25.07
2018-06-08T18:32:32.694Z,24.99
2018-06-08T18:34:59.387Z,25.00
2018-06-08T18:37:26.093Z,24.97
2018-06-08T18:39:52.896Z,24.93
2018-06-08T18:42:19.516Z,25.08
2018-06-08T18:44:46.185Z,25.26
2018-06-08T18:47:12.938Z,25.36
2018-06-08T18:49:39.624Z,25.18
2018-06-08T18:52:06.282Z,25.09
2018-06-08T18:54:32.980Z,25.06
2018-06-08T18:56:59.725Z,25.08
2018-06-08T18:59:26.334Z,25.04
2018-06-08T19:01:53.103Z,24.99
2018-06-08T19:04:19.784Z,24.96
2018-06-08T19:06:46.442Z,24.90
2018-06-08T19:09:13.126Z,24.89
2018-06-08T19:11:39.751Z,24.79
2018-06-08T19:14:06.443Z,24.84
2018-06-08T19:16:33.130Z,24.82
2018-06-08T19:18:59.783Z,24.96
2018-06-08T19:21:26.449Z,25.03
2018-06-08T19:23:53.194Z,25.08
2018-06-08T19:26:19.902Z,25.22
2018-06-08T19:28:46.530Z,25.19
2018-06-08T19:31:13.206Z,25.00
2018-06-08T19:33:39.884Z,24.92
2018-06-08T19:36:06.505Z,24.83
2018-06-08T19:38:33.250Z,24.83
2018-06-08T19:40:59.961Z,24.75
2018-06-08T19:43:26.655Z,24.78
2018-06-08T19:45:53.363Z,24.75
2018-06-08T19:48:20.023Z,24.69
2018-06-08T19:50:46.728Z,24.84
2018-06-08T19:53:13.381Z,24.96
2018-06-08T19:55:40.055Z,25.04
2018-06-08T19:58:06.696Z,25.10
2018-06-08T20:00:33.361Z,25.18
2018-06-08T20:03:00.033Z,24.95
2018-06-08T20:05:26.691Z,24.88
2018-06-08T20:07:53.352Z,24.79
2018-06-08T20:10:19.997Z,24.75
2018-06-08T20:12:46.659Z,24.67
2018-06-08T20:15:13.304Z,24.65
2018-06-08T20:17:39.969Z,24.67
2018-06-08T20:20:06.653Z,24.73
2018-06-08T20:22:33.312Z,24.83
2018-06-08T20:24:59.938Z,24.97
2018-06-08T20:27:26.584Z,25.06
2018-06-08T20:29:53.254Z,25.10
2018-06-08T20:32:19.891Z,25.10
2018-06-08T20:34:46.604Z,24.91
2018-06-08T20:37:13.266Z,24.81
2018-06-08T20:39:40.057Z,24.71
2018-06-08T20:42:06.688Z,24.65
2018-06-08T20:44:33.452Z,24.61
2018-06-08T20:47:08.496Z,24.55
2018-06-08T20:49:43.277Z,24.54
2018-06-08T20:52:10.104Z,24.45
2018-06-08T20:54:36.756Z,24.44
2018-06-08T20:57:03.840Z,24.44
2018-06-08T20:59:30.889Z,24.41
2018-06-08T21:01:58.488Z,24.35
2018-06-08T21:04:28.338Z,24.35
2018-06-08T21:06:57.492Z,24.33
2018-06-08T21:09:24.603Z,24.29
2018-06-08T21:11:52.215Z,24.28
2018-06-08T21:17:05.701Z,24.22
2018-06-08T21:19:33.273Z,24.22
2018-06-08T21:21:59.967Z,24.20
2018-06-08T21:24:26.608Z,24.33
2018-06-08T21:26:53.312Z,24.43
2018-06-08T21:29:19.985Z,24.56
2018-06-08T21:31:46.813Z,24.63
2018-06-08T21:34:13.850Z,24.48
2018-06-08T21:36:40.501Z,24.40
2018-06-08T21:39:08.269Z,24.14
2018-06-08T21:41:35.327Z,23.93
2018-06-08T21:44:01.913Z,23.74
2018-06-08T21:46:28.611Z,23.91
2018-06-08T21:48:55.556Z,24.05
2018-06-08T21:51:22.634Z,24.29
2018-06-08T21:53:49.288Z,24.38
2018-06-08T21:56:15.972Z,24.48
2018-06-08T21:58:42.670Z,24.58
2018-06-08T22:01:09.360Z,24.70
2018-06-08T22:03:36.063Z,24.66
2018-06-08T22:06:02.736Z,24.71
2018-06-08T22:08:29.421Z,24.75
2018-06-08T22:10:56.108Z,24.79
2018-06-08T22:13:22.838Z,24.82
2018-06-08T22:15:49.488Z,24.80
2018-06-08T22:18:16.209Z,24.85
2018-06-08T22:20:42.855Z,24.86
2018-06-08T22:23:09.589Z,24.85
2018-06-08T22:25:36.277Z,24.94
2018-06-08T22:28:02.930Z,24.93
2018-06-08T22:30:29.620Z,24.90
2018-06-08T22:32:56.360Z,24.87
2018-06-08T22:35:22.996Z,24.90
2018-06-08T22:37:49.690Z,24.90
2018-06-08T22:40:16.453Z,24.99
2018-06-08T22:42:43.152Z,24.94
2018-06-08T22:45:09.848Z,24.98
2018-06-08T22:47:36.554Z,24.97
2018-06-08T22:50:03.248Z,24.98
2018-06-08T22:52:30.057Z,24.98
2018-06-08T22:54:56.736Z,24.74
2018-06-08T22:57:23.419Z,24.64
2018-06-08T22:59:50.105Z,24.45
2018-06-08T23:02:16.902Z,24.37
2018-06-08T23:04:43.621Z,24.33
2018-06-08T23:07:10.345Z,24.23
2018-06-08T23:09:37.040Z,24.20
2018-06-08T23:12:03.690Z,24.12
2018-06-08T23:14:30.382Z,24.10
2018-06-08T23:16:57.072Z,24.05
2018-06-08T23:19:23.764Z,24.00
2018-06-08T23:21:50.444Z,24.01
2018-06-08T23:24:17.164Z,23.96
2018-06-08T23:26:43.845Z,23.90
2018-06-08T23:29:10.624Z,23.91
2018-06-08T23:31:37.253Z,23.89
2018-06-08T23:34:03.936Z,23.85
2018-06-08T23:36:30.653Z,23.86
2018-06-08T23:38:57.305Z,24.07
2018-06-08T23:41:23.993Z,24.15
2018-06-08T23:43:50.711Z,24.23
2018-06-08T23:46:17.379Z,24.10
2018-06-08T23:48:44.065Z,24.02
2018-06-08T23:51:10.760Z,23.96
2018-06-08T23:53:37.467Z,23.93
2018-06-08T23:56:04.190Z,23.82
2018-06-08T23:58:30.842Z,23.84
